Time;durP1;ratioP1;P1;durP2;ratioP2;P2;SDS_P1;SDS_P2;PMS_P1;PMS_P2;Temp;Humidity;BMP_temperature;BMP_pressure;BME280_temperature;BME280_humidity;BME280_pressure;Samples;Min_cycle;Max_cycle;Signal;HPM_P1;HPM_P2
2024/01/10 00:00:56;;;;;;;48.78;16.92;;;;;;;;;;5070017;28;20103;-58
2024/01/10 00:03:21;;;;;;;52.07;18.97;;;;;;;;;;5070923;28;20447;-58
2024/01/10 00:05:46;;;;;;;52.88;17.85;;;;;;;;;;5068911;28;20163;-58
2024/01/10 00:08:11;;;;;;;52.10;16.67;;;;;;;;;;5070545;28;20494;-58
2024/01/10 00:10:36;;;;;;;55.13;17.83;;;;;;;;;;5062649;28;20024;-57
2024/01/10 00:13:01;;;;;;;52.23;16.60;;;;;;;;;;5050242;28;20107;-57
2024/01/10 00:15:26;;;;;;;57.15;17.38;;;;;;;;;;5062958;28;20112;-58
2024/01/10 00:17:52;;;;;;;51.33;16.58;;;;;;;;;;5070122;28;20028;-59
2024/01/10 00:20:17;;;;;;;55.63;17.67;;;;;;;;;;5062173;28;20017;-57
2024/01/10 00:22:42;;;;;;;58.15;17.13;;;;;;;;;;5069048;28;20031;-58
2024/01/10 00:25:07;;;;;;;57.33;16.93;;;;;;;;;;5061330;28;20124;-58
2024/01/10 00:27:32;;;;;;;52.97;16.90;;;;;;;;;;5047322;28;20037;-58
2024/01/10 00:29:57;;;;;;;51.85;16.15;;;;;;;;;;5050847;28;20106;-58
2024/01/10 00:32:23;;;;;;;57.13;18.23;;;;;;;;;;5066232;28;20372;-58
2024/01/10 00:34:48;;;;;;;58.80;16.73;;;;;;;;;;5070441;28;20032;-58
2024/01/10 00:37:13;;;;;;;57.13;16.70;;;;;;;;;;5068998;28;20025;-58
2024/01/10 00:39:38;;;;;;;50.72;16.17;;;;;;;;;;5067319;28;20078;-57
2024/01/10 00:42:03;;;;;;;51.00;16.55;;;;;;;;;;5070102;28;20036;-57
2024/01/10 00:44:28;;;;;;;53.07;16.47;;;;;;;;;;5054435;28;20044;-58
2024/01/10 00:46:53;;;;;;;53.17;16.20;;;;;;;;;;5068904;28;20063;-58
2024/01/10 00:49:19;;;;;;;56.42;17.08;;;;;;;;;;5067218;28;20101;-57
2024/01/10 00:51:44;;;;;;;54.38;16.13;;;;;;;;;;5069052;28;20556;-58
2024/01/10 00:54:09;;;;;;;46.33;15.67;;;;;;;;;;5052039;28;20017;-58
2024/01/10 00:56:34;;;;;;;49.85;16.48;;;;;;;;;;5070433;28;20016;-58
2024/01/10 00:58:59;;;;;;;54.47;16.70;;;;;;;;;;5068195;28;20631;-58
2024/01/10 01:01:24;;;;;;;52.40;17.13;;;;;;;;;;5059854;28;20074;-57
2024/01/10 01:03:50;;;;;;;52.90;17.05;;;;;;;;;;5069947;28;20013;-57
2024/01/10 01:06:15;;;;;;;44.45;15.57;;;;;;;;;;5059282;28;20396;-58
2024/01/10 01:08:40;;;;;;;57.43;18.37;;;;;;;;;;5065423;28;20396;-58
2024/01/10 01:11:05;;;;;;;51.42;16.67;;;;;;;;;;5069727;28;20032;-58
2024/01/10 01:13:30;;;;;;;55.25;17.35;;;;;;;;;;5070030;28;20025;-57
2024/01/10 01:15:56;;;;;;;47.65;15.85;;;;;;;;;;5067170;28;20044;-58
2024/01/10 01:18:21;;;;;;;52.55;16.63;;;;;;;;;;5057713;28;20029;-57
2024/01/10 01:20:48;;;;;;;55.70;17.42;;;;;;;;;;5064740;28;20486;-58
2024/01/10 01:23:13;;;;;;;;;;;;;;;;;;5071653;28;20033;-58
2024/01/10 01:25:38;;;;;;;;;;;;;;;;;;5070688;28;20003;-58
2024/01/10 01:28:04;;;;;;;46.07;14.37;;;;;;;;;;5055739;28;20276;-58
2024/01/10 01:30:29;;;;;;;45.00;15.57;;;;;;;;;;5068239;28;20046;-58
2024/01/10 01:32:54;;;;;;;46.20;14.53;;;;;;;;;;5071138;28;20661;-58
2024/01/10 01:35:22;;;;;;;50.33;15.23;;;;;;;;;;5069733;28;20048;-58
2024/01/10 01:37:47;;;;;;;;;;;;;;;;;;5074351;28;20112;-58
2024/01/10 01:40:12;;;;;;;40.33;14.60;;;;;;;;;;5061663;28;19920;-58
2024/01/10 01:42:37;;;;;;;55.53;15.63;;;;;;;;;;5053721;28;20053;-57
2024/01/10 01:45:02;;;;;;;51.95;16.23;;;;;;;;;;5072614;28;20016;-58
2024/01/10 01:47:28;;;;;;;55.17;17.17;;;;;;;;;;5062000;28;20044;-58
2024/01/10 01:49:53;;;;;;;55.42;16.67;;;;;;;;;;5065752;28;20028;-58
2024/01/10 01:52:18;;;;;;;49.38;15.55;;;;;;;;;;5067832;28;20016;-58
2024/01/10 01:54:44;;;;;;;47.50;15.35;;;;;;;;;;5072779;28;20039;-58
2024/01/10 01:57:09;;;;;;;48.50;15.25;;;;;;;;;;5073425;28;20091;-58
2024/01/10 01:59:34;;;;;;;51.03;15.93;;;;;;;;;;5072571;28;20503;-59
2024/01/10 02:02:01;;;;;;;46.30;15.50;;;;;;;;;;5068282;28;20115;-57
2024/01/10 02:04:26;;;;;;;53.38;16.90;;;;;;;;;;5072612;28;20481;-58
2024/01/10 02:06:51;;;;;;;57.20;17.00;;;;;;;;;;5066948;28;20039;-58
2024/01/10 02:09:17;;;;;;;48.47;15.77;;;;;;;;;;5072991;28;20047;-57
2024/01/10 02:11:42;;;;;;;51.30;17.10;;;;;;;;;;5072879;28;20031;-57
2024/01/10 02:14:08;;;;;;;51.35;16.25;;;;;;;;;;5072828;28;20017;-57
2024/01/10 02:16:33;;;;;;;54.92;16.33;;;;;;;;;;5063772;28;20044;-58
2024/01/10 02:18:58;;;;;;;53.33;16.27;;;;;;;;;;5073161;28;20105;-58
2024/01/10 02:21:23;;;;;;;49.15;15.77;;;;;;;;;;5067027;28;20032;-59
2024/01/10 02:23:48;;;;;;;47.40;15.57;;;;;;;;;;5063903;28;20115;-58
2024/01/10 02:26:14;;;;;;;64.03;16.70;;;;;;;;;;5071568;28;20502;-58
2024/01/10 02:28:39;;;;;;;48.60;15.88;;;;;;;;;;5056005;28;20033;-58
2024/01/10 02:31:04;;;;;;;47.83;16.05;;;;;;;;;;5065194;28;20036;-58
2024/01/10 02:33:30;;;;;;;48.05;14.95;;;;;;;;;;5071655;28;20522;-58
2024/01/10 02:35:55;;;;;;;53.63;16.33;;;;;;;;;;5071769;28;20138;-58
2024/01/10 02:38:23;;;;;;;44.60;14.80;;;;;;;;;;5072324;28;20111;-58
2024/01/10 02:40:48;;;;;;;47.65;15.60;;;;;;;;;;5066391;28;20497;-58
2024/01/10 02:43:13;;;;;;;49.00;14.93;;;;;;;;;;5059874;28;20039;-57
2024/01/10 02:45:38;;;;;;;51.53;15.57;;;;;;;;;;5055090;28;20052;-58
2024/01/10 02:48:04;;;;;;;45.97;14.75;;;;;;;;;;5064695;28;20028;-59
2024/01/10 02:50:29;;;;;;;51.53;15.85;;;;;;;;;;5069230;28;20055;-57
2024/01/10 02:52:54;;;;;;;50.65;16.65;;;;;;;;;;5052628;28;20440;-58
2024/01/10 02:55:19;;;;;;;50.75;15.52;;;;;;;;;;5052446;28;20167;-56
2024/01/10 02:57:44;;;;;;;45.03;15.23;;;;;;;;;;5070787;28;20021;-58
2024/01/10 03:00:10;;;;;;;46.63;16.00;;;;;;;;;;5071284;28;20385;-58
2024/01/10 03:02:35;;;;;;;51.33;15.27;;;;;;;;;;5062002;28;20073;-57
2024/01/10 03:05:00;;;;;;;51.30;15.40;;;;;;;;;;5066899;28;20416;-58
2024/01/10 03:07:25;;;;;;;47.20;15.00;;;;;;;;;;5055863;28;20027;-57
2024/01/10 03:09:50;;;;;;;52.53;16.20;;;;;;;;;;5072679;28;20032;-58
2024/01/10 03:12:16;;;;;;;48.92;15.15;;;;;;;;;;5056337;28;21010;-58
2024/01/10 03:14:41;;;;;;;51.00;15.27;;;;;;;;;;5052205;28;20047;-58
2024/01/10 03:17:06;;;;;;;46.47;13.77;;;;;;;;;;5052575;28;20048;-58
2024/01/10 03:19:32;;;;;;;46.05;14.18;;;;;;;;;;5069644;28;20545;-57
2024/01/10 03:21:57;;;;;;;46.50;14.53;;;;;;;;;;5060473;28;20060;-58
2024/01/10 03:24:24;;;;;;;46.77;14.30;;;;;;;;;;5071411;28;20048;-57
2024/01/10 03:26:49;;;;;;;47.05;14.77;;;;;;;;;;5070366;28;20020;-58
2024/01/10 03:29:14;;;;;;;41.10;14.27;;;;;;;;;;5071543;28;20400;-58
2024/01/10 03:31:39;;;;;;;43.93;13.53;;;;;;;;;;5071134;28;20147;-58
2024/01/10 03:34:04;;;;;;;48.57;15.50;;;;;;;;;;5069094;28;20055;-58
2024/01/10 03:36:30;;;;;;;48.13;14.25;;;;;;;;;;5069179;28;20170;-59
2024/01/10 03:38:55;;;;;;;44.67;15.07;;;;;;;;;;5069932;28;20074;-59
2024/01/10 03:41:20;;;;;;;50.33;14.80;;;;;;;;;;5070847;28;20028;-57
2024/01/10 03:43:45;;;;;;;47.17;14.93;;;;;;;;;;5071297;28;20021;-58
2024/01/10 03:46:11;;;;;;;48.78;14.70;;;;;;;;;;5067815;28;20466;-57
2024/01/10 03:48:36;;;;;;;49.97;14.93;;;;;;;;;;5081597;28;20025;-57
2024/01/10 03:51:02;;;;;;;44.95;16.48;;;;;;;;;;5065125;28;20474;-57
2024/01/10 03:53:27;;;;;;;43.33;14.75;;;;;;;;;;5071385;28;20021;-58
2024/01/10 03:55:52;;;;;;;50.80;14.90;;;;;;;;;;5057529;28;20029;-58
2024/01/10 03:58:18;;;;;;;50.00;15.67;;;;;;;;;;5068909;28;20399;-57
2024/01/10 04:00:43;;;;;;;50.13;14.80;;;;;;;;;;5062619;28;20021;-57
2024/01/10 04:03:08;;;;;;;50.03;14.70;;;;;;;;;;5049814;28;20033;-57
2024/01/10 04:05:33;;;;;;;47.35;14.27;;;;;;;;;;5051369;28;20025;-58
2024/01/10 04:07:58;;;;;;;44.22;14.55;;;;;;;;;;5061627;28;20020;-57
2024/01/10 04:10:23;;;;;;;40.73;14.33;;;;;;;;;;5067379;28;20082;-58
2024/01/10 04:12:50;;;;;;;42.63;15.23;;;;;;;;;;5069187;28;20028;-58
2024/01/10 04:15:15;;;;;;;47.78;15.13;;;;;;;;;;5059642;28;20025;-58
2024/01/10 04:17:41;;;;;;;46.58;14.95;;;;;;;;;;5061388;28;20392;-59
2024/01/10 04:20:07;;;;;;;49.75;15.02;;;;;;;;;;5052654;28;20137;-58
2024/01/10 04:22:32;;;;;;;43.08;13.63;;;;;;;;;;5051707;28;20032;-58
2024/01/10 04:24:58;;;;;;;43.33;14.50;;;;;;;;;;5065085;28;20111;-58
2024/01/10 04:27:23;;;;;;;48.53;15.57;;;;;;;;;;5070797;28;20017;-57
2024/01/10 04:29:48;;;;;;;52.20;15.25;;;;;;;;;;5070490;28;20056;-57
2024/01/10 04:32:14;;;;;;;57.95;14.63;;;;;;;;;;5069871;28;20127;-57
2024/01/10 04:34:39;;;;;;;44.00;14.35;;;;;;;;;;5063884;28;20336;-57
2024/01/10 04:37:06;;;;;;;55.63;14.95;;;;;;;;;;5090566;28;20456;-57
2024/01/10 04:39:31;;;;;;;48.22;13.98;;;;;;;;;;5080421;28;20017;-57
2024/01/10 04:41:57;;;;;;;49.08;14.82;;;;;;;;;;5069888;28;20034;-58
2024/01/10 04:44:22;;;;;;;48.90;14.45;;;;;;;;;;5070029;28;20027;-57
2024/01/10 04:46:47;;;;;;;43.05;14.00;;;;;;;;;;5070398;28;20449;-58
2024/01/10 04:49:12;;;;;;;47.10;15.27;;;;;;;;;;5064397;28;20084;-57
2024/01/10 04:51:37;;;;;;;46.30;14.70;;;;;;;;;;5065655;28;20030;-58
2024/01/10 04:54:03;;;;;;;43.83;13.77;;;;;;;;;;5070111;28;20032;-57
2024/01/10 04:56:28;;;;;;;52.57;16.33;;;;;;;;;;5063898;28;20032;-58
2024/01/10 04:58:53;;;;;;;44.10;14.13;;;;;;;;;;5070147;28;20488;-58
2024/01/10 05:01:18;;;;;;;44.70;14.43;;;;;;;;;;5064302;28;20027;-57
2024/01/10 05:03:43;;;;;;;52.45;14.90;;;;;;;;;;5064961;28;20032;-58
2024/01/10 05:06:08;;;;;;;49.65;15.23;;;;;;;;;;5071424;28;20017;-57
2024/01/10 05:08:33;;;;;;;48.17;14.73;;;;;;;;;;5075819;28;20861;-58
2024/01/10 05:10:59;;;;;;;49.92;15.63;;;;;;;;;;5071560;28;20449;-58
2024/01/10 05:13:24;;;;;;;53.70;15.93;;;;;;;;;;5071578;28;20021;-57
2024/01/10 05:15:49;;;;;;;43.25;14.40;;;;;;;;;;5061558;28;20020;-58
2024/01/10 05:18:16;;;;;;;50.90;16.40;;;;;;;;;;5065343;28;20381;-57
2024/01/10 05:20:41;;;;;;;47.88;14.50;;;;;;;;;;5051010;28;20495;-58
2024/01/10 05:23:06;;;;;;;50.13;14.80;;;;;;;;;;5063764;28;20029;-58
2024/01/10 05:25:32;;;;;;;49.10;15.05;;;;;;;;;;5068385;28;20498;-57
2024/01/10 05:27:57;;;;;;;44.83;14.27;;;;;;;;;;5068054;28;20023;-58
2024/01/10 05:30:22;;;;;;;45.93;14.73;;;;;;;;;;5064445;28;20476;-58
2024/01/10 05:32:47;;;;;;;45.70;14.90;;;;;;;;;;5055893;28;20103;-57
2024/01/10 05:35:12;;;;;;;47.33;14.98;;;;;;;;;;5057756;28;20511;-57
2024/01/10 05:37:38;;;;;;;51.47;14.47;;;;;;;;;;5068722;28;20024;-58
2024/01/10 05:40:05;;;;;;;49.10;14.57;;;;;;;;;;5053753;28;20039;-57
2024/01/10 05:42:32;;;;;;;;;;;;;;;;;;5050074;28;21302;-57
2024/01/10 05:44:57;;;;;;;44.55;13.73;;;;;;;;;;5067514;28;20277;-57
2024/01/10 05:47:22;;;;;;;43.28;13.80;;;;;;;;;;5070359;28;20077;-57
2024/01/10 05:49:47;;;;;;;46.33;14.23;;;;;;;;;;5065228;28;20039;-57
2024/01/10 05:52:13;;;;;;;42.90;13.38;;;;;;;;;;5063532;28;20489;-57
2024/01/10 05:54:38;;;;;;;46.00;14.37;;;;;;;;;;5054860;28;21057;-58
2024/01/10 05:57:03;;;;;;;42.42;14.35;;;;;;;;;;5063294;28;20392;-58
2024/01/10 05:59:30;;;;;;;44.47;13.53;;;;;;;;;;5053231;28;20033;-57
2024/01/10 06:01:55;;;;;;;45.58;14.32;;;;;;;;;;5054790;28;20029;-58
2024/01/10 06:04:20;;;;;;;48.03;15.93;;;;;;;;;;5068504;28;20447;-58
2024/01/10 06:06:46;;;;;;;50.93;15.77;;;;;;;;;;5071813;28;20027;-58
2024/01/10 06:09:11;;;;;;;48.23;15.80;;;;;;;;;;5061954;28;20017;-57
2024/01/10 06:11:42;;;;;;;43.47;15.23;;;;;;;;;;5070585;28;20484;-58
2024/01/10 06:14:07;;;;;;;49.03;15.13;;;;;;;;;;5077507;28;20032;-58
2024/01/10 06:16:32;;;;;;;45.23;15.07;;;;;;;;;;5079337;28;20020;-58
2024/01/10 06:18:58;;;;;;;49.75;15.57;;;;;;;;;;5062954;28;20381;-57
2024/01/10 06:21:23;;;;;;;41.60;14.70;;;;;;;;;;5066466;28;20384;-60
2024/01/10 06:23:48;;;;;;;52.10;15.90;;;;;;;;;;5072732;28;20024;-59
2024/01/10 06:26:15;;;;;;;42.00;13.13;;;;;;;;;;5062507;28;20520;-58
2024/01/10 06:28:40;;;;;;;46.30;14.68;;;;;;;;;;5059386;28;20027;-57
2024/01/10 06:31:05;;;;;;;49.23;14.23;;;;;;;;;;5061354;28;20021;-58
2024/01/10 06:33:30;;;;;;;54.35;15.73;;;;;;;;;;5064096;28;20017;-59
2024/01/10 06:35:55;;;;;;;50.20;15.43;;;;;;;;;;5072676;28;20044;-58
2024/01/10 06:38:22;;;;;;;47.93;14.30;;;;;;;;;;5072005;28;20476;-57
2024/01/10 06:40:47;;;;;;;47.60;14.30;;;;;;;;;;5070225;28;20039;-57
2024/01/10 06:43:12;;;;;;;46.40;14.03;;;;;;;;;;5065616;28;20468;-56
2024/01/10 06:45:37;;;;;;;43.07;13.40;;;;;;;;;;5068431;28;20028;-57
2024/01/10 06:48:03;;;;;;;50.57;15.37;;;;;;;;;;5068771;28;20099;-56
2024/01/10 06:50:28;;;;;;;41.17;12.77;;;;;;;;;;5063008;28;20150;-56
2024/01/10 06:52:53;;;;;;;47.17;14.30;;;;;;;;;;5064994;28;20052;-58
2024/01/10 06:55:18;;;;;;;55.47;15.77;;;;;;;;;;5061605;28;20019;-58
2024/01/10 06:57:43;;;;;;;47.20;14.47;;;;;;;;;;5064020;28;20051;-56
2024/01/10 07:00:10;;;;;;;47.70;15.10;;;;;;;;;;5067353;28;20052;-58
2024/01/10 07:02:36;;;;;;;50.78;14.98;;;;;;;;;;5060811;28;20486;-57
2024/01/10 07:05:01;;;;;;;47.83;14.73;;;;;;;;;;5071270;28;20020;-57
2024/01/10 07:07:26;;;;;;;52.40;16.33;;;;;;;;;;5070479;28;20023;-57
2024/01/10 07:09:51;;;;;;;54.50;16.50;;;;;;;;;;5067527;28;20063;-55
2024/01/10 07:12:16;;;;;;;52.03;15.73;;;;;;;;;;5068842;28;20020;-58
2024/01/10 07:14:42;;;;;;;43.97;15.02;;;;;;;;;;5069730;28;20040;-59
2024/01/10 07:17:07;;;;;;;51.13;16.10;;;;;;;;;;5059940;28;20493;-57
2024/01/10 07:19:32;;;;;;;52.13;16.00;;;;;;;;;;5068646;28;20031;-57
2024/01/10 07:21:57;;;;;;;50.95;16.60;;;;;;;;;;5062840;28;20044;-57
2024/01/10 07:24:22;;;;;;;53.45;16.55;;;;;;;;;;5070386;28;20897;-57
2024/01/10 07:26:47;;;;;;;43.70;15.23;;;;;;;;;;5069811;28;20031;-58
2024/01/10 07:29:13;;;;;;;45.72;15.40;;;;;;;;;;5067939;28;20025;-58
2024/01/10 07:31:38;;;;;;;55.57;16.43;;;;;;;;;;5068706;28;20488;-58
2024/01/10 07:34:06;;;;;;;52.70;16.70;;;;;;;;;;5064866;28;20104;-58
2024/01/10 07:36:33;;;;;;;53.40;16.90;;;;;;;;;;5071202;28;20426;-58
2024/01/10 07:38:58;;;;;;;56.75;19.13;;;;;;;;;;5062938;28;20036;-58
2024/01/10 07:41:23;;;;;;;55.47;17.87;;;;;;;;;;5059718;28;20162;-57
2024/01/10 07:43:49;;;;;;;62.47;17.70;;;;;;;;;;5062327;28;20024;-57
2024/01/10 07:46:14;;;;;;;54.43;17.50;;;;;;;;;;5062711;28;20377;-57
2024/01/10 07:48:39;;;;;;;56.75;17.50;;;;;;;;;;5068771;28;20163;-58
2024/01/10 07:51:05;;;;;;;49.15;16.73;;;;;;;;;;5067396;28;20536;-59
2024/01/10 07:53:30;;;;;;;52.08;16.42;;;;;;;;;;5069175;28;20024;-57
2024/01/10 07:55:55;;;;;;;55.63;16.77;;;;;;;;;;5070293;28;20023;-57
2024/01/10 07:58:20;;;;;;;51.23;17.07;;;;;;;;;;5066990;28;20543;-58
2024/01/10 08:00:46;;;;;;;49.40;17.13;;;;;;;;;;5062346;28;20462;-58
2024/01/10 08:03:12;;;;;;;54.53;16.83;;;;;;;;;;5068545;28;20056;-57
2024/01/10 08:05:37;;;;;;;51.92;17.08;;;;;;;;;;5071093;28;20017;-59
2024/01/10 08:08:03;;;;;;;53.20;16.50;;;;;;;;;;5063173;28;20480;-57
2024/01/10 08:10:28;;;;;;;47.28;15.25;;;;;;;;;;5061038;28;20099;-58
2024/01/10 08:12:53;;;;;;;50.07;16.00;;;;;;;;;;5065087;28;20449;-59
2024/01/10 08:15:19;;;;;;;49.77;16.27;;;;;;;;;;5054033;28;20341;-58
2024/01/10 08:17:44;;;;;;;52.88;17.30;;;;;;;;;;5048488;28;20450;-58
2024/01/10 08:20:10;;;;;;;45.03;15.30;;;;;;;;;;5055306;28;20012;-59
2024/01/10 08:22:37;;;;;;;47.90;15.43;;;;;;;;;;5046981;28;20024;-57
2024/01/10 08:25:03;;;;;;;47.38;14.20;;;;;;;;;;5064211;28;20055;-57
2024/01/10 08:27:28;;;;;;;48.15;16.58;;;;;;;;;;5064641;28;20056;-57
2024/01/10 08:29:53;;;;;;;47.27;14.20;;;;;;;;;;5067951;28;20498;-56
2024/01/10 08:32:20;;;;;;;44.43;13.63;;;;;;;;;;5068897;28;20036;-56
2024/01/10 08:34:45;;;;;;;48.92;14.65;;;;;;;;;;5062039;28;20485;-58
2024/01/10 08:37:10;;;;;;;50.67;16.17;;;;;;;;;;5071181;28;20080;-56
2024/01/10 08:39:35;;;;;;;42.45;15.02;;;;;;;;;;5070181;28;20020;-56
2024/01/10 08:42:01;;;;;;;44.30;16.73;;;;;;;;;;5062803;28;20037;-57
2024/01/10 08:44:26;;;;;;;53.33;17.15;;;;;;;;;;5064308;28;20047;-58
2024/01/10 08:46:52;;;;;;;44.25;14.20;;;;;;;;;;5069889;28;20032;-58
2024/01/10 08:49:17;;;;;;;49.78;15.30;;;;;;;;;;5062820;28;20025;-57
2024/01/10 08:51:43;;;;;;;52.88;15.90;;;;;;;;;;5068670;28;20028;-58
2024/01/10 08:54:08;;;;;;;43.78;14.52;;;;;;;;;;5065336;28;20024;-57
2024/01/10 08:56:34;;;;;;;43.57;14.80;;;;;;;;;;5067775;28;20430;-57
2024/01/10 08:58:59;;;;;;;45.13;14.10;;;;;;;;;;5064862;28;20044;-58
2024/01/10 09:01:24;;;;;;;46.50;15.75;;;;;;;;;;5056886;28;20393;-59
2024/01/10 09:03:50;;;;;;;39.50;13.50;;;;;;;;;;5065191;28;20025;-58
2024/01/10 09:06:15;;;;;;;41.83;14.00;;;;;;;;;;5066459;28;20031;-59
2024/01/10 09:08:40;;;;;;;40.17;14.27;;;;;;;;;;5067239;28;20025;-58
2024/01/10 09:11:05;;;;;;;44.63;13.73;;;;;;;;;;5063676;28;20033;-57
2024/01/10 09:13:31;;;;;;;41.58;14.35;;;;;;;;;;5055858;28;20475;-58
2024/01/10 09:15:56;;;;;;;39.47;14.43;;;;;;;;;;5072298;28;20017;-58
2024/01/10 09:18:21;;;;;;;40.00;14.20;;;;;;;;;;5064305;28;20479;-56
2024/01/10 09:20:47;;;;;;;45.70;14.68;;;;;;;;;;5062500;28;20090;-58
2024/01/10 09:23:13;;;;;;;40.25;13.70;;;;;;;;;;5061214;28;20044;-58
2024/01/10 09:25:39;;;;;;;42.92;14.85;;;;;;;;;;5066517;28;20021;-59
2024/01/10 09:28:04;;;;;;;44.22;14.32;;;;;;;;;;5069789;28;20012;-58
2024/01/10 09:30:29;;;;;;;38.38;13.43;;;;;;;;;;5065805;28;20016;-58
2024/01/10 09:32:56;;;;;;;40.67;13.95;;;;;;;;;;5067695;28;20025;-57
2024/01/10 09:35:22;;;;;;;44.25;14.38;;;;;;;;;;5067232;28;20041;-57
2024/01/10 09:37:48;;;;;;;39.90;13.25;;;;;;;;;;5068403;28;20028;-57
2024/01/10 09:40:14;;;;;;;41.05;13.43;;;;;;;;;;5064396;28;20056;-56
2024/01/10 09:42:39;;;;;;;37.78;13.55;;;;;;;;;;5059363;28;20400;-59
2024/01/10 09:45:05;;;;;;;41.57;13.93;;;;;;;;;;5058414;28;20020;-58
2024/01/10 09:47:31;;;;;;;35.08;14.00;;;;;;;;;;5065632;28;20445;-57
2024/01/10 09:49:57;;;;;;;45.63;15.00;;;;;;;;;;5070125;28;20388;-56
2024/01/10 09:52:27;;;;;;;41.67;15.00;;;;;;;;;;5069175;28;20466;-58
2024/01/10 09:54:56;;;;;;;36.03;13.15;;;;;;;;;;5065408;28;20028;-58
2024/01/10 09:57:23;;;;;;;40.92;13.07;;;;;;;;;;5073101;28;20024;-57
2024/01/10 09:59:51;;;;;;;37.03;14.27;;;;;;;;;;5070900;28;20040;-55
2024/01/10 10:02:17;;;;;;;41.10;14.30;;;;;;;;;;5068908;28;20028;-58
2024/01/10 10:04:48;;;;;;;34.90;13.02;;;;;;;;;;5071480;28;20050;-57
2024/01/10 10:07:13;;;;;;;40.20;13.73;;;;;;;;;;5070190;28;20388;-57
2024/01/10 10:09:38;;;;;;;43.80;14.10;;;;;;;;;;5064200;28;20016;-57
2024/01/10 10:12:04;;;;;;;40.08;13.48;;;;;;;;;;5061245;28;20049;-57
2024/01/10 10:14:30;;;;;;;38.60;12.98;;;;;;;;;;5061996;28;20008;-58
2024/01/10 10:16:55;;;;;;;36.42;13.00;;;;;;;;;;5062719;28;20054;-57
2024/01/10 10:19:24;;;;;;;34.83;12.07;;;;;;;;;;5062953;28;20111;-58
2024/01/10 10:21:49;;;;;;;36.60;12.32;;;;;;;;;;5071696;28;20022;-58
2024/01/10 10:24:14;;;;;;;37.70;13.30;;;;;;;;;;5068334;28;20457;-58
2024/01/10 10:26:41;;;;;;;38.28;13.02;;;;;;;;;;5062465;28;20032;-56
2024/01/10 10:29:06;;;;;;;36.72;13.13;;;;;;;;;;5065973;28;20059;-57
2024/01/10 10:31:32;;;;;;;33.60;11.83;;;;;;;;;;5073767;28;20021;-56
2024/01/10 10:33:59;;;;;;;35.20;12.05;;;;;;;;;;5062888;28;20460;-58
2024/01/10 10:36:24;;;;;;;38.92;11.75;;;;;;;;;;5065741;28;20028;-58
2024/01/10 10:38:49;;;;;;;32.87;12.43;;;;;;;;;;5065912;28;20361;-57
2024/01/10 10:41:15;;;;;;;34.57;11.50;;;;;;;;;;5071431;28;20062;-57
2024/01/10 10:43:40;;;;;;;33.38;11.32;;;;;;;;;;5070541;28;20031;-58
2024/01/10 10:46:06;;;;;;;33.35;12.82;;;;;;;;;;5070759;28;20341;-58
2024/01/10 10:48:34;;;;;;;37.50;13.43;;;;;;;;;;5063688;28;20103;-59
2024/01/10 10:51:08;;;;;;;32.15;12.25;;;;;;;;;;5069666;28;20116;-57
2024/01/10 10:53:35;;;;;;;32.30;12.07;;;;;;;;;;5071059;28;20036;-59
2024/01/10 10:56:02;;;;;;;41.25;12.55;;;;;;;;;;5076099;28;20119;-58
2024/01/10 10:58:27;;;;;;;36.25;13.65;;;;;;;;;;5062875;28;20021;-59
2024/01/10 11:00:53;;;;;;;32.88;12.70;;;;;;;;;;5063884;28;20065;-58
2024/01/10 11:03:18;;;;;;;31.08;12.15;;;;;;;;;;5060454;28;20067;-56
2024/01/10 11:05:44;;;;;;;32.28;12.10;;;;;;;;;;5062735;28;20028;-58
2024/01/10 11:08:12;;;;;;;34.55;12.23;;;;;;;;;;5062996;28;20040;-59
2024/01/10 11:10:39;;;;;;;31.58;11.88;;;;;;;;;;5066153;28;20020;-58
2024/01/10 11:13:20;;;;;;;29.05;11.68;;;;;;;;;;5064086;28;20603;-59
2024/01/10 11:16:04;;;;;;;32.47;11.00;;;;;;;;;;5069742;28;20036;-58
2024/01/10 11:18:47;;;;;;;26.35;10.48;;;;;;;;;;5060625;28;20028;-59
2024/01/10 11:21:25;;;;;;;30.35;11.15;;;;;;;;;;5063568;28;20029;-58
2024/01/10 11:23:52;;;;;;;33.00;11.80;;;;;;;;;;5063585;28;20476;-56
2024/01/10 11:26:19;;;;;;;33.35;11.65;;;;;;;;;;5062757;28;20052;-59
2024/01/10 11:28:44;;;;;;;32.60;11.25;;;;;;;;;;5067537;28;20496;-59
2024/01/10 11:31:09;;;;;;;28.57;11.07;;;;;;;;;;5071036;28;20073;-59
2024/01/10 11:33:40;;;;;;;34.80;12.10;;;;;;;;;;5069975;28;20467;-57
2024/01/10 11:36:24;;;;;;;31.58;12.23;;;;;;;;;;5065117;28;20028;-57
2024/01/10 11:38:59;;;;;;;28.23;10.65;;;;;;;;;;5064193;28;20549;-58
2024/01/10 11:41:38;;;;;;;27.55;10.85;;;;;;;;;;5063609;28;20486;-57
2024/01/10 11:44:17;;;;;;;27.90;11.00;;;;;;;;;;5067191;28;20016;-57
2024/01/10 11:46:43;;;;;;;30.45;11.82;;;;;;;;;;5070115;28;20094;-58
2024/01/10 11:49:11;;;;;;;29.98;10.82;;;;;;;;;;5060302;28;20426;-58
2024/01/10 11:51:37;;;;;;;29.10;10.55;;;;;;;;;;5061308;28;20115;-59
2024/01/10 11:54:02;;;;;;;28.10;10.57;;;;;;;;;;5069763;28;20104;-57
2024/01/10 11:56:37;;;;;;;28.20;11.13;;;;;;;;;;5070942;28;20024;-58
2024/01/10 11:59:04;;;;;;;29.30;11.30;;;;;;;;;;5060743;28;20016;-58
2024/01/10 12:01:29;;;;;;;34.75;11.20;;;;;;;;;;5064755;28;20064;-58
2024/01/10 12:03:56;;;;;;;28.30;11.13;;;;;;;;;;5051660;28;20028;-58
2024/01/10 12:06:21;;;;;;;;;;;;;;;;;;5061346;28;20170;-58
2024/01/10 12:08:46;;;;;;;26.55;9.57;;;;;;;;;;5059752;28;19992;-57
2024/01/10 12:11:11;;;;;;;24.90;9.33;;;;;;;;;;5057605;28;20020;-57
2024/01/10 12:13:37;;;;;;;23.50;9.03;;;;;;;;;;5062403;28;20361;-58
2024/01/10 12:16:02;;;;;;;23.60;8.80;;;;;;;;;;5067591;28;20210;-58
2024/01/10 12:18:27;;;;;;;20.90;7.90;;;;;;;;;;5059482;28;20127;-59
2024/01/10 12:20:52;;;;;;;17.77;7.50;;;;;;;;;;5063020;28;20526;-58
2024/01/10 12:23:17;;;;;;;17.75;6.45;;;;;;;;;;5061395;28;20047;-57
2024/01/10 12:25:42;;;;;;;16.80;6.20;;;;;;;;;;5062739;28;20036;-58
2024/01/10 12:28:08;;;;;;;13.15;4.10;;;;;;;;;;5064871;28;20028;-57
2024/01/10 12:30:33;;;;;;;9.02;3.35;;;;;;;;;;5071317;28;20486;-58
2024/01/10 12:32:59;;;;;;;9.40;3.35;;;;;;;;;;5065622;28;20496;-57
2024/01/10 12:35:24;;;;;;;9.35;3.40;;;;;;;;;;5068908;28;20480;-59
2024/01/10 12:37:53;;;;;;;11.93;3.57;;;;;;;;;;5064172;28;20024;-58
2024/01/10 12:40:19;;;;;;;11.13;3.08;;;;;;;;;;5069184;28;20500;-59
2024/01/10 12:42:44;;;;;;;8.88;3.35;;;;;;;;;;5060360;28;20058;-58
2024/01/10 12:45:24;;;;;;;12.10;3.35;;;;;;;;;;5060175;28;20505;-59
2024/01/10 12:47:49;;;;;;;9.57;3.33;;;;;;;;;;5062558;28;20027;-60
2024/01/10 12:50:15;;;;;;;12.67;3.50;;;;;;;;;;5062947;28;20020;-59
2024/01/10 12:52:42;;;;;;;8.63;3.00;;;;;;;;;;5060309;28;20077;-58
2024/01/10 12:55:07;;;;;;;8.90;2.95;;;;;;;;;;5062909;28;20071;-60
2024/01/10 12:57:32;;;;;;;11.50;3.17;;;;;;;;;;5067150;28;20515;-58
2024/01/10 12:59:57;;;;;;;7.68;2.95;;;;;;;;;;5066578;28;20028;-59
2024/01/10 13:02:22;;;;;;;10.00;3.50;;;;;;;;;;5068974;28;20035;-59
2024/01/10 13:04:48;;;;;;;9.07;3.03;;;;;;;;;;5064614;28;20033;-60
2024/01/10 13:07:13;;;;;;;10.83;3.27;;;;;;;;;;5068025;28;20035;-57
2024/01/10 13:09:39;;;;;;;9.03;3.23;;;;;;;;;;5067033;28;20107;-60
2024/01/10 13:12:04;;;;;;;9.70;3.38;;;;;;;;;;5060657;28;20508;-59
2024/01/10 13:14:31;;;;;;;9.95;3.42;;;;;;;;;;5062553;28;20022;-59
2024/01/10 13:16:56;;;;;;;9.75;3.25;;;;;;;;;;5070784;28;20548;-57
2024/01/10 13:19:21;;;;;;;10.90;3.70;;;;;;;;;;5070487;28;20040;-60
2024/01/10 13:21:46;;;;;;;9.07;3.23;;;;;;;;;;5069921;28;20021;-59
2024/01/10 13:24:12;;;;;;;10.67;3.60;;;;;;;;;;5068126;28;20484;-59
2024/01/10 13:26:37;;;;;;;11.27;3.57;;;;;;;;;;5070000;28;20028;-60
2024/01/10 13:29:02;;;;;;;8.63;3.28;;;;;;;;;;5066532;28;20475;-60
2024/01/10 13:31:28;;;;;;;10.38;3.85;;;;;;;;;;5073438;28;20048;-59
2024/01/10 13:33:53;;;;;;;8.73;3.40;;;;;;;;;;5071036;28;20675;-62
2024/01/10 13:36:19;;;;;;;9.10;3.28;;;;;;;;;;5073967;28;20511;-59
2024/01/10 13:38:44;;;;;;;11.23;3.53;;;;;;;;;;5072723;28;20028;-59
2024/01/10 13:41:09;;;;;;;11.43;3.70;;;;;;;;;;5059022;28;20043;-60
2024/01/10 13:43:34;;;;;;;9.70;3.90;;;;;;;;;;5058221;28;20380;-58
2024/01/10 13:46:01;;;;;;;8.95;3.35;;;;;;;;;;5073921;28;20059;-59
2024/01/10 13:48:26;;;;;;;10.20;3.72;;;;;;;;;;5073680;28;20017;-60
2024/01/10 13:50:51;;;;;;;11.52;3.70;;;;;;;;;;5069315;28;20095;-59
2024/01/10 13:53:17;;;;;;;13.80;4.05;;;;;;;;;;5060783;28;20025;-62
2024/01/10 13:55:42;;;;;;;10.75;3.40;;;;;;;;;;5070331;28;20408;-58
2024/01/10 13:58:07;;;;;;;10.23;3.53;;;;;;;;;;5070507;28;20079;-58
2024/01/10 14:00:32;;;;;;;9.00;3.13;;;;;;;;;;5062862;28;20033;-59
2024/01/10 14:03:00;;;;;;;9.15;3.35;;;;;;;;;;5065101;28;20075;-58
2024/01/10 14:05:27;;;;;;;9.05;3.53;;;;;;;;;;5074348;28;20392;-59
2024/01/10 14:07:52;;;;;;;10.98;3.50;;;;;;;;;;5068064;28;20542;-58
2024/01/10 14:10:18;;;;;;;9.27;3.37;;;;;;;;;;5064105;28;20016;-58
2024/01/10 14:12:43;;;;;;;8.85;3.30;;;;;;;;;;5062585;28;20029;-57